sensor_id;sensor_type;location;lat;lon;timestamp;pressure;altitude;pressure_sealevel;temperature;humidity
2188;BME280;1100;52.014;8.540;2023-04-05T00:02:20;101015.16;;;-0.78;61.60
2188;BME280;1100;52.014;8.540;2023-04-05T00:04:45;101013.78;;;-0.84;61.88
2188;BME280;1100;52.014;8.540;2023-04-05T00:07:22;101006.72;;;-0.85;61.78
2188;BME280;1100;52.014;8.540;2023-04-05T00:09:48;101012.19;;;-0.85;61.96
2188;BME280;1100;52.014;8.540;2023-04-05T00:12:14;101011.84;;;-0.84;62.35
2188;BME280;1100;52.014;8.540;2023-04-05T00:14:39;101011.84;;;-0.84;62.20
2188;BME280;1100;52.014;8.540;2023-04-05T00:17:05;101008.22;;;-0.88;62.08
2188;BME280;1100;52.014;8.540;2023-04-05T00:19:30;101006.94;;;-0.91;62.28
2188;BME280;1100;52.014;8.540;2023-04-05T00:21:58;101007.28;;;-0.92;62.12
2188;BME280;1100;52.014;8.540;2023-04-05T00:24:24;101006.84;;;-0.94;62.38
2188;BME280;1100;52.014;8.540;2023-04-05T00:26:49;101009.44;;;-0.98;62.41
2188;BME280;1100;52.014;8.540;2023-04-05T00:29:15;101012.34;;;-1.03;62.47
2188;BME280;1100;52.014;8.540;2023-04-05T00:31:40;101010.63;;;-1.08;62.44
2188;BME280;1100;52.014;8.540;2023-04-05T00:34:05;101008.25;;;-1.09;62.54
2188;BME280;1100;52.014;8.540;2023-04-05T00:36:33;101013.94;;;-1.15;62.59
2188;BME280;1100;52.014;8.540;2023-04-05T00:38:58;101012.78;;;-1.14;62.83
2188;BME280;1100;52.014;8.540;2023-04-05T00:41:24;101013.13;;;-1.15;62.88
2188;BME280;1100;52.014;8.540;2023-04-05T00:43:49;101007.09;;;-1.21;62.65
2188;BME280;1100;52.014;8.540;2023-04-05T00:46:15;101003.88;;;-1.23;62.98
2188;BME280;1100;52.014;8.540;2023-04-05T00:48:40;101001.84;;;-1.26;63.03
2188;BME280;1100;52.014;8.540;2023-04-05T00:51:06;101003.66;;;-1.30;63.10
2188;BME280;1100;52.014;8.540;2023-04-05T00:53:35;101000.09;;;-1.31;63.20
2188;BME280;1100;52.014;8.540;2023-04-05T00:56:02;100995.47;;;-1.30;63.07
2188;BME280;1100;52.014;8.540;2023-04-05T00:58:28;100994.66;;;-1.31;63.18
2188;BME280;1100;52.014;8.540;2023-04-05T01:01:06;100994.19;;;-1.33;63.17
2188;BME280;1100;52.014;8.540;2023-04-05T01:03:40;100986.19;;;-1.38;63.28
2188;BME280;1100;52.014;8.540;2023-04-05T01:11:16;100983.69;;;-1.43;63.49
2188;BME280;1100;52.014;8.540;2023-04-05T01:13:44;100978.09;;;-1.47;63.50
2188;BME280;1100;52.014;8.540;2023-04-05T01:16:10;100976.50;;;-1.48;63.71
2188;BME280;1100;52.014;8.540;2023-04-05T01:18:36;100978.91;;;-1.46;63.74
2188;BME280;1100;52.014;8.540;2023-04-05T01:23:58;100982.41;;;-1.46;63.96
2188;BME280;1100;52.014;8.540;2023-04-05T01:32:39;100972.44;;;-1.63;64.03
2188;BME280;1100;52.014;8.540;2023-04-05T01:35:17;100975.06;;;-1.67;63.97
2188;BME280;1100;52.014;8.540;2023-04-05T01:37:48;100971.88;;;-1.69;64.06
2188;BME280;1100;52.014;8.540;2023-04-05T01:40:17;100971.38;;;-1.71;64.30
2188;BME280;1100;52.014;8.540;2023-04-05T01:42:43;100969.81;;;-1.72;64.18
2188;BME280;1100;52.014;8.540;2023-04-05T01:45:10;100968.22;;;-1.73;64.37
2188;BME280;1100;52.014;8.540;2023-04-05T01:47:35;100966.28;;;-1.72;64.64
2188;BME280;1100;52.014;8.540;2023-04-05T01:50:00;100961.63;;;-1.72;64.53
2188;BME280;1100;52.014;8.540;2023-04-05T01:52:26;100971.38;;;-1.71;64.44
2188;BME280;1100;52.014;8.540;2023-04-05T01:54:51;100953.78;;;-1.73;64.63
2188;BME280;1100;52.014;8.540;2023-04-05T01:57:16;100953.63;;;-1.77;64.75
2188;BME280;1100;52.014;8.540;2023-04-05T01:59:42;100951.13;;;-1.82;64.75
2188;BME280;1100;52.014;8.540;2023-04-05T02:02:07;100951.78;;;-1.85;64.51
2188;BME280;1100;52.014;8.540;2023-04-05T02:04:32;100945.53;;;-1.86;64.76
2188;BME280;1100;52.014;8.540;2023-04-05T02:06:58;100950.19;;;-1.86;64.65
2188;BME280;1100;52.014;8.540;2023-04-05T02:09:23;100944.63;;;-1.90;64.60
2188;BME280;1100;52.014;8.540;2023-04-05T02:11:48;100941.41;;;-1.92;65.04
2188;BME280;1100;52.014;8.540;2023-04-05T02:14:14;100943.94;;;-1.87;65.22
2188;BME280;1100;52.014;8.540;2023-04-05T02:16:39;100940.22;;;-1.82;65.15
2188;BME280;1100;52.014;8.540;2023-04-05T02:19:04;100938.16;;;-1.85;65.09
2188;BME280;1100;52.014;8.540;2023-04-05T02:21:30;100939.16;;;-1.90;65.28
2188;BME280;1100;52.014;8.540;2023-04-05T02:23:56;100940.50;;;-1.96;64.91
2188;BME280;1100;52.014;8.540;2023-04-05T02:26:21;100948.72;;;-2.05;65.16
2188;BME280;1100;52.014;8.540;2023-04-05T02:28:47;100944.41;;;-2.06;65.31
2188;BME280;1100;52.014;8.540;2023-04-05T02:31:13;100939.44;;;-2.04;65.38
2188;BME280;1100;52.014;8.540;2023-04-05T02:33:39;100946.94;;;-2.01;65.36
2188;BME280;1100;52.014;8.540;2023-04-05T02:36:06;100945.81;;;-2.00;65.33
2188;BME280;1100;52.014;8.540;2023-04-05T02:38:32;100945.00;;;-2.01;65.44
2188;BME280;1100;52.014;8.540;2023-04-05T02:40:58;100944.41;;;-2.06;65.29
2188;BME280;1100;52.014;8.540;2023-04-05T02:43:23;100950.19;;;-2.08;65.68
2188;BME280;1100;52.014;8.540;2023-04-05T02:45:48;100953.91;;;-2.13;65.49
2188;BME280;1100;52.014;8.540;2023-04-05T02:48:15;100943.66;;;-2.16;65.58
2188;BME280;1100;52.014;8.540;2023-04-05T02:50:40;100938.06;;;-2.19;65.83
2188;BME280;1100;52.014;8.540;2023-04-05T02:53:06;100945.00;;;-2.22;65.83
2188;BME280;1100;52.014;8.540;2023-04-05T02:55:31;100940.19;;;-2.25;65.55
2188;BME280;1100;52.014;8.540;2023-04-05T02:57:58;100939.88;;;-2.23;66.04
2188;BME280;1100;52.014;8.540;2023-04-05T03:00:27;100940.34;;;-2.21;66.01
2188;BME280;1100;52.014;8.540;2023-04-05T03:02:53;100939.38;;;-2.26;65.83
2188;BME280;1100;52.014;8.540;2023-04-05T03:05:18;100932.69;;;-2.28;65.90
2188;BME280;1100;52.014;8.540;2023-04-05T03:07:44;100931.88;;;-2.29;65.98
2188;BME280;1100;52.014;8.540;2023-04-05T03:10:12;100927.25;;;-2.28;66.06
2188;BME280;1100;52.014;8.540;2023-04-05T03:12:38;100935.41;;;-2.28;65.88
2188;BME280;1100;52.014;8.540;2023-04-05T03:15:03;100932.22;;;-2.30;65.92
2188;BME280;1100;52.014;8.540;2023-04-05T03:17:29;100936.72;;;-2.34;66.08
2188;BME280;1100;52.014;8.540;2023-04-05T03:19:55;100924.59;;;-2.37;66.00
2188;BME280;1100;52.014;8.540;2023-04-05T03:22:20;100927.47;;;-2.42;65.96
2188;BME280;1100;52.014;8.540;2023-04-05T03:24:46;100922.69;;;-2.45;66.30
2188;BME280;1100;52.014;8.540;2023-04-05T03:27:11;100920.63;;;-2.48;66.30
2188;BME280;1100;52.014;8.540;2023-04-05T03:29:37;100922.09;;;-2.51;66.35
2188;BME280;1100;52.014;8.540;2023-04-05T03:32:02;100913.59;;;-2.49;66.69
2188;BME280;1100;52.014;8.540;2023-04-05T03:34:28;100916.09;;;-2.44;66.99
2188;BME280;1100;52.014;8.540;2023-04-05T03:36:56;100915.78;;;-2.43;66.62
2188;BME280;1100;52.014;8.540;2023-04-05T03:39:21;100920.78;;;-2.45;66.48
2188;BME280;1100;52.014;8.540;2023-04-05T03:41:46;100919.03;;;-2.49;66.25
2188;BME280;1100;52.014;8.540;2023-04-05T03:44:12;100922.75;;;-2.54;66.41
2188;BME280;1100;52.014;8.540;2023-04-05T03:46:37;100921.78;;;-2.58;66.32
2188;BME280;1100;52.014;8.540;2023-04-05T03:49:03;100913.94;;;-2.60;66.77
2188;BME280;1100;52.014;8.540;2023-04-05T03:51:28;100915.25;;;-2.57;67.00
2188;BME280;1100;52.014;8.540;2023-04-05T03:53:55;100907.53;;;-2.55;67.03
2188;BME280;1100;52.014;8.540;2023-04-05T03:56:20;100899.69;;;-2.57;66.60
2188;BME280;1100;52.014;8.540;2023-04-05T03:58:46;100905.13;;;-2.57;66.82
2188;BME280;1100;52.014;8.540;2023-04-05T04:01:11;100906.75;;;-2.56;66.85
2188;BME280;1100;52.014;8.540;2023-04-05T04:03:37;100907.72;;;-2.60;66.86
2188;BME280;1100;52.014;8.540;2023-04-05T04:06:04;100909.50;;;-2.65;66.73
2188;BME280;1100;52.014;8.540;2023-04-05T04:08:29;100906.94;;;-2.70;67.02
2188;BME280;1100;52.014;8.540;2023-04-05T04:10:55;100907.59;;;-2.73;66.96
2188;BME280;1100;52.014;8.540;2023-04-05T04:13:21;100894.66;;;-2.76;66.92
2188;BME280;1100;52.014;8.540;2023-04-05T04:15:46;100897.03;;;-2.75;67.24
2188;BME280;1100;52.014;8.540;2023-04-05T04:18:11;100897.84;;;-2.74;66.85
2188;BME280;1100;52.014;8.540;2023-04-05T04:20:37;100901.50;;;-2.70;67.39
2188;BME280;1100;52.014;8.540;2023-04-05T04:23:05;100903.59;;;-2.67;67.34
2188;BME280;1100;52.014;8.540;2023-04-05T04:25:37;100904.56;;;-2.71;67.44
2188;BME280;1100;52.014;8.540;2023-04-05T04:28:05;100900.56;;;-2.74;67.41
2188;BME280;1100;52.014;8.540;2023-04-05T04:30:31;100896.25;;;-2.75;67.38
2188;BME280;1100;52.014;8.540;2023-04-05T04:32:59;100900.09;;;-2.76;67.35
2188;BME280;1100;52.014;8.540;2023-04-05T04:35:30;100901.56;;;-2.79;67.41
2188;BME280;1100;52.014;8.540;2023-04-05T04:38:00;100909.25;;;-2.81;67.61
2188;BME280;1100;52.014;8.540;2023-04-05T04:40:32;100907.50;;;-2.85;67.68
2188;BME280;1100;52.014;8.540;2023-04-05T04:43:07;100910.69;;;-2.83;67.73
2188;BME280;1100;52.014;8.540;2023-04-05T04:45:34;100907.66;;;-2.82;67.58
2188;BME280;1100;52.014;8.540;2023-04-05T04:48:02;100906.41;;;-2.84;67.44
2188;BME280;1100;52.014;8.540;2023-04-05T04:50:29;100895.03;;;-2.86;67.75
2188;BME280;1100;52.014;8.540;2023-04-05T04:52:57;100907.50;;;-2.85;67.60
2188;BME280;1100;52.014;8.540;2023-04-05T04:55:22;100905.25;;;-2.83;67.76
2188;BME280;1100;52.014;8.540;2023-04-05T04:57:54;100899.34;;;-2.85;67.77
2188;BME280;1100;52.014;8.540;2023-04-05T05:00:20;100905.59;;;-2.85;67.86
2188;BME280;1100;52.014;8.540;2023-04-05T05:02:46;100902.53;;;-2.83;68.31
2188;BME280;1100;52.014;8.540;2023-04-05T05:05:12;100904.59;;;-2.80;68.00
2188;BME280;1100;52.014;8.540;2023-04-05T05:07:40;100905.41;;;-2.80;67.92
2188;BME280;1100;52.014;8.540;2023-04-05T05:10:11;100905.88;;;-2.78;68.00
2188;BME280;1100;52.014;8.540;2023-04-05T05:12:40;100914.03;;;-2.78;67.98
2188;BME280;1100;52.014;8.540;2023-04-05T05:15:06;100914.84;;;-2.77;68.09
2188;BME280;1100;52.014;8.540;2023-04-05T05:17:31;100911.31;;;-2.78;68.32
2188;BME280;1100;52.014;8.540;2023-04-05T05:19:58;100918.03;;;-2.75;68.04
2188;BME280;1100;52.014;8.540;2023-04-05T05:22:28;100911.78;;;-2.76;68.30
2188;BME280;1100;52.014;8.540;2023-04-05T05:24:53;100907.94;;;-2.75;68.04
2188;BME280;1100;52.014;8.540;2023-04-05T05:27:18;100918.03;;;-2.75;67.95
2188;BME280;1100;52.014;8.540;2023-04-05T05:29:44;100913.84;;;-2.72;68.07
2188;BME280;1100;52.014;8.540;2023-04-05T05:32:09;100920.09;;;-2.72;68.34
2188;BME280;1100;52.014;8.540;2023-04-05T05:34:40;100908.56;;;-2.69;68.48
2188;BME280;1100;52.014;8.540;2023-04-05T05:37:05;100922.00;;;-2.64;68.41
2188;BME280;1100;52.014;8.540;2023-04-05T05:39:31;100907.72;;;-2.60;68.28
2188;BME280;1100;52.014;8.540;2023-04-05T05:41:56;100910.25;;;-2.55;68.46
2188;BME280;1100;52.014;8.540;2023-04-05T05:44:22;100904.28;;;-2.48;68.62
2188;BME280;1100;52.014;8.540;2023-04-05T05:46:47;100911.75;;;-2.36;68.57
2188;BME280;1100;52.014;8.540;2023-04-05T05:49:12;100916.59;;;-2.21;68.96
2188;BME280;1100;52.014;8.540;2023-04-05T05:51:38;100912.38;;;-2.09;68.40
2188;BME280;1100;52.014;8.540;2023-04-05T05:54:03;100903.00;;;-1.99;68.76
2188;BME280;1100;52.014;8.540;2023-04-05T05:56:28;100920.19;;;-1.86;68.83
2188;BME280;1100;52.014;8.540;2023-04-05T05:58:54;100911.63;;;-1.76;68.81
2188;BME280;1100;52.014;8.540;2023-04-05T06:01:19;100917.00;;;-1.67;68.67
2188;BME280;1100;52.014;8.540;2023-04-05T06:03:47;100918.19;;;-1.56;68.69
2188;BME280;1100;52.014;8.540;2023-04-05T06:06:12;100913.78;;;-1.48;68.65
2188;BME280;1100;52.014;8.540;2023-04-05T06:08:38;100914.03;;;-1.41;68.75
2188;BME280;1100;52.014;8.540;2023-04-05T06:11:03;100915.41;;;-1.34;68.61
2188;BME280;1100;52.014;8.540;2023-04-05T06:13:29;100921.00;;;-1.31;68.83
2188;BME280;1100;52.014;8.540;2023-04-05T06:15:54;100916.91;;;-1.24;68.72
2188;BME280;1100;52.014;8.540;2023-04-05T06:18:20;100915.22;;;-1.17;68.71
2188;BME280;1100;52.014;8.540;2023-04-05T06:20:45;100911.63;;;-1.08;68.67
2188;BME280;1100;52.014;8.540;2023-04-05T06:23:11;100918.44;;;-1.02;68.83
2188;BME280;1100;52.014;8.540;2023-04-05T06:25:36;100912.41;;;-0.95;68.71
2188;BME280;1100;52.014;8.540;2023-04-05T06:28:03;100913.78;;;-0.89;68.60
2188;BME280;1100;52.014;8.540;2023-04-05T06:30:29;100914.81;;;-0.81;68.69
2188;BME280;1100;52.014;8.540;2023-04-05T06:32:55;100912.09;;;-0.69;68.75
2188;BME280;1100;52.014;8.540;2023-04-05T06:35:22;100905.25;;;-0.63;68.82
2188;BME280;1100;52.014;8.540;2023-04-05T06:37:47;100914.03;;;-0.57;68.64
2188;BME280;1100;52.014;8.540;2023-04-05T06:40:13;100915.94;;;-0.45;68.89
2188;BME280;1100;52.014;8.540;2023-04-05T06:42:38;100919.00;;;-0.34;68.88
2188;BME280;1100;52.014;8.540;2023-04-05T06:45:04;100915.09;;;-0.20;68.85
2188;BME280;1100;52.014;8.540;2023-04-05T06:47:37;100920.13;;;-0.10;68.72
2188;BME280;1100;52.014;8.540;2023-04-05T06:50:03;100914.97;;;0.01;68.84
2188;BME280;1100;52.014;8.540;2023-04-05T06:52:29;100913.44;;;0.16;68.64
2188;BME280;1100;52.014;8.540;2023-04-05T06:54:55;100911.91;;;0.31;68.64
2188;BME280;1100;52.014;8.540;2023-04-05T06:57:21;100909.13;;;0.44;68.57
2188;BME280;1100;52.014;8.540;2023-04-05T06:59:46;100902.44;;;0.57;68.44
2188;BME280;1100;52.014;8.540;2023-04-05T07:02:11;100900.34;;;0.67;68.35
2188;BME280;1100;52.014;8.540;2023-04-05T07:04:38;100900.25;;;0.79;68.46
2188;BME280;1100;52.014;8.540;2023-04-05T07:07:04;100894.00;;;0.95;68.48
2188;BME280;1100;52.014;8.540;2023-04-05T07:09:33;100894.00;;;1.11;68.86
2188;BME280;1100;52.014;8.540;2023-04-05T07:11:59;100898.31;;;1.28;68.65
2188;BME280;1100;52.014;8.540;2023-04-05T07:14:28;100893.53;;;1.41;68.50
2188;BME280;1100;52.014;8.540;2023-04-05T07:16:54;100891.81;;;1.53;68.59
2188;BME280;1100;52.014;8.540;2023-04-05T07:19:20;100885.44;;;1.65;68.35
2188;BME280;1100;52.014;8.540;2023-04-05T07:21:45;100888.78;;;1.74;68.26
2188;BME280;1100;52.014;8.540;2023-04-05T07:24:10;100881.91;;;1.84;68.31
2188;BME280;1100;52.014;8.540;2023-04-05T07:26:36;100879.13;;;2.00;68.08
2188;BME280;1100;52.014;8.540;2023-04-05T07:29:02;100882.66;;;2.20;68.41
2188;BME280;1100;52.014;8.540;2023-04-05T07:31:28;100881.78;;;2.36;67.97
2188;BME280;1100;52.014;8.540;2023-04-05T07:33:55;100882.53;;;2.56;67.89
2188;BME280;1100;52.014;8.540;2023-04-05T07:36:22;100884.00;;;2.73;68.07
2188;BME280;1100;52.014;8.540;2023-04-05T07:38:47;100884.00;;;2.97;67.95
2188;BME280;1100;52.014;8.540;2023-04-05T07:41:12;100883.88;;;3.13;67.61
2188;BME280;1100;52.014;8.540;2023-04-05T07:43:40;100888.91;;;3.34;67.24
2188;BME280;1100;52.014;8.540;2023-04-05T07:46:06;100888.16;;;3.65;66.90
2188;BME280;1100;52.014;8.540;2023-04-05T07:48:31;100888.78;;;3.81;66.85
2188;BME280;1100;52.014;8.540;2023-04-05T07:51:06;100886.81;;;3.82;66.63
2188;BME280;1100;52.014;8.540;2023-04-05T07:53:33;100887.66;;;3.86;66.70
2188;BME280;1100;52.014;8.540;2023-04-05T07:56:03;100885.38;;;3.92;66.41
2188;BME280;1100;52.014;8.540;2023-04-05T07:58:28;100890.88;;;3.92;66.23
2188;BME280;1100;52.014;8.540;2023-04-05T08:01:03;100888.47;;;3.86;66.38
2188;BME280;1100;52.014;8.540;2023-04-05T08:03:30;100891.94;;;3.83;66.07
2188;BME280;1100;52.014;8.540;2023-04-05T08:05:56;100878.56;;;3.82;66.18
2188;BME280;1100;52.014;8.540;2023-04-05T08:08:23;100880.63;;;3.89;66.23
2188;BME280;1100;52.014;8.540;2023-04-05T08:10:49;100883.53;;;3.99;66.49
2188;BME280;1100;52.014;8.540;2023-04-05T08:13:14;100885.66;;;4.14;66.22
2188;BME280;1100;52.014;8.540;2023-04-05T08:15:40;100881.94;;;4.33;66.42
2188;BME280;1100;52.014;8.540;2023-04-05T08:18:05;100892.38;;;4.54;66.27
2188;BME280;1100;52.014;8.540;2023-04-05T08:20:31;100886.88;;;4.54;65.80
2188;BME280;1100;52.014;8.540;2023-04-05T08:22:56;100887.41;;;4.67;66.23
2188;BME280;1100;52.014;8.540;2023-04-05T08:25:21;100883.56;;;4.79;65.89
2188;BME280;1100;52.014;8.540;2023-04-05T08:27:47;100884.56;;;5.02;65.84
2188;BME280;1100;52.014;8.540;2023-04-05T08:30:12;100885.31;;;5.55;65.91
2188;BME280;1100;52.014;8.540;2023-04-05T08:32:37;100893.84;;;6.02;65.58
2188;BME280;1100;52.014;8.540;2023-04-05T08:35:03;100884.91;;;6.34;65.09
2188;BME280;1100;52.014;8.540;2023-04-05T08:37:33;100880.66;;;6.77;65.20
2188;BME280;1100;52.014;8.540;2023-04-05T08:39:58;100881.84;;;7.20;64.69
2188;BME280;1100;52.014;8.540;2023-04-05T08:42:33;100880.19;;;7.52;64.12
2188;BME280;1100;52.014;8.540;2023-04-05T08:45:02;100875.41;;;7.78;63.59
2188;BME280;1100;52.014;8.540;2023-04-05T08:47:28;100880.03;;;8.06;63.85
2188;BME280;1100;52.014;8.540;2023-04-05T08:49:55;100873.13;;;8.44;63.02
2188;BME280;1100;52.014;8.540;2023-04-05T08:52:20;100876.22;;;8.60;62.16
2188;BME280;1100;52.014;8.540;2023-04-05T08:54:46;100879.31;;;8.70;61.85
2188;BME280;1100;52.014;8.540;2023-04-05T08:57:12;100874.41;;;8.89;61.74
2188;BME280;1100;52.014;8.540;2023-04-05T08:59:38;100871.53;;;9.03;61.37
2188;BME280;1100;52.014;8.540;2023-04-05T09:02:17;100873.94;;;8.97;61.37
2188;BME280;1100;52.014;8.540;2023-04-05T09:04:43;100862.13;;;8.90;60.83
2188;BME280;1100;52.014;8.540;2023-04-05T09:07:11;100869.91;;;9.09;61.27
2188;BME280;1100;52.014;8.540;2023-04-05T09:09:38;100870.16;;;9.22;60.92
2188;BME280;1100;52.014;8.540;2023-04-05T09:12:07;100869.41;;;9.18;59.07
2188;BME280;1100;52.014;8.540;2023-04-05T09:14:33;100874.97;;;9.15;59.29
2188;BME280;1100;52.014;8.540;2023-04-05T09:17:01;100861.00;;;9.29;59.65
2188;BME280;1100;52.014;8.540;2023-04-05T09:19:26;100867.22;;;9.41;58.68
2188;BME280;1100;52.014;8.540;2023-04-05T09:24:40;100868.88;;;9.34;58.73
2188;BME280;1100;52.014;8.540;2023-04-05T09:27:12;100865.63;;;8.97;58.13
2188;BME280;1100;52.014;8.540;2023-04-05T09:29:39;100859.00;;;8.88;57.55
2188;BME280;1100;52.014;8.540;2023-04-05T09:32:07;100854.22;;;8.88;57.88
2188;BME280;1100;52.014;8.540;2023-04-05T09:34:33;100850.03;;;9.15;58.43
2188;BME280;1100;52.014;8.540;2023-04-05T09:37:02;100846.84;;;9.55;58.24
2188;BME280;1100;52.014;8.540;2023-04-05T09:39:30;100856.03;;;9.87;57.88
2188;BME280;1100;52.014;8.540;2023-04-05T09:42:12;100848.16;;;9.81;56.16
2188;BME280;1100;52.014;8.540;2023-04-05T09:44:49;100849.44;;;10.04;56.57
2188;BME280;1100;52.014;8.540;2023-04-05T09:47:15;100856.03;;;10.18;55.35
2188;BME280;1100;52.014;8.540;2023-04-05T09:49:41;100842.22;;;10.10;55.59
2188;BME280;1100;52.014;8.540;2023-04-05T09:52:21;100851.69;;;10.44;55.56
2188;BME280;1100;52.014;8.540;2023-04-05T09:54:47;100848.97;;;10.68;54.66
2188;BME280;1100;52.014;8.540;2023-04-05T09:57:14;100852.69;;;10.86;54.06
2188;BME280;1100;52.014;8.540;2023-04-05T09:59:40;100853.75;;;10.68;53.26
2188;BME280;1100;52.014;8.540;2023-04-05T10:02:05;100850.94;;;10.40;53.38
2188;BME280;1100;52.014;8.540;2023-04-05T10:04:42;100844.72;;;10.60;52.53
2188;BME280;1100;52.014;8.540;2023-04-05T10:07:09;100843.69;;;10.50;53.12
2188;BME280;1100;52.014;8.540;2023-04-05T10:09:38;100842.56;;;10.71;52.38
2188;BME280;1100;52.014;8.540;2023-04-05T10:12:05;100837.97;;;10.85;51.64
2188;BME280;1100;52.014;8.540;2023-04-05T10:14:31;100838.03;;;10.81;51.08
2188;BME280;1100;52.014;8.540;2023-04-05T10:17:13;100837.97;;;11.09;51.63
2188;BME280;1100;52.014;8.540;2023-04-05T10:19:56;100832.72;;;11.35;51.02
2188;BME280;1100;52.014;8.540;2023-04-05T10:22:31;100831.72;;;11.45;51.10
2188;BME280;1100;52.014;8.540;2023-04-05T10:25:04;100815.97;;;11.79;50.23
2188;BME280;1100;52.014;8.540;2023-04-05T10:27:40;100828.13;;;12.06;50.21
2188;BME280;1100;52.014;8.540;2023-04-05T10:30:11;100823.06;;;12.01;49.32
2188;BME280;1100;52.014;8.540;2023-04-05T10:32:42;100822.59;;;11.86;49.41
2188;BME280;1100;52.014;8.540;2023-04-05T10:35:14;100818.44;;;11.94;49.07
2188;BME280;1100;52.014;8.540;2023-04-05T10:37:51;100817.53;;;11.80;49.03
2188;BME280;1100;52.014;8.540;2023-04-05T10:40:19;100818.50;;;12.11;48.28
2188;BME280;1100;52.014;8.540;2023-04-05T10:42:46;100821.72;;;12.09;47.37
2188;BME280;1100;52.014;8.540;2023-04-05T10:45:16;100804.66;;;11.87;46.01
2188;BME280;1100;52.014;8.540;2023-04-05T10:48:17;100809.63;;;11.95;46.97
2188;BME280;1100;52.014;8.540;2023-04-05T10:50:46;100810.06;;;11.94;46.08
2188;BME280;1100;52.014;8.540;2023-04-05T10:53:12;100808.94;;;12.12;47.50
2188;BME280;1100;52.014;8.540;2023-04-05T10:55:39;100800.25;;;12.43;47.25
2188;BME280;1100;52.014;8.540;2023-04-05T10:58:05;100801.13;;;12.73;47.24
2188;BME280;1100;52.014;8.540;2023-04-05T11:00:32;100802.09;;;12.83;46.61
2188;BME280;1100;52.014;8.540;2023-04-05T11:02:57;100805.03;;;12.76;46.24
2188;BME280;1100;52.014;8.540;2023-04-05T11:05:34;100799.03;;;12.27;45.84
2188;BME280;1100;52.014;8.540;2023-04-05T11:08:07;100786.13;;;11.59;46.16
2188;BME280;1100;52.014;8.540;2023-04-05T11:10:34;100787.84;;;11.53;46.73
2188;BME280;1100;52.014;8.540;2023-04-05T11:20:46;100798.25;;;11.29;45.97
2188;BME280;1100;52.014;8.540;2023-04-05T11:23:14;100792.25;;;10.62;47.08
2188;BME280;1100;52.014;8.540;2023-04-05T11:25:45;100780.69;;;10.12;47.33
2188;BME280;1100;52.014;8.540;2023-04-05T11:28:22;100775.84;;;9.57;47.51
2188;BME280;1100;52.014;8.540;2023-04-05T11:30:49;100780.03;;;9.00;47.91
2188;BME280;1100;52.014;8.540;2023-04-05T11:33:58;100767.38;;;8.56;48.58
2188;BME280;1100;52.014;8.540;2023-04-05T11:36:49;100768.47;;;8.66;48.62
2188;BME280;1100;52.014;8.540;2023-04-05T11:41:43;100771.03;;;10.72;49.28
2188;BME280;1100;52.014;8.540;2023-04-05T11:44:13;100766.69;;;10.71;48.88
2188;BME280;1100;52.014;8.540;2023-04-05T11:46:40;100765.41;;;10.52;47.36
2188;BME280;1100;52.014;8.540;2023-04-05T11:49:06;100761.66;;;10.86;46.93
2188;BME280;1100;52.014;8.540;2023-04-05T11:51:32;100755.41;;;11.02;46.88
2188;BME280;1100;52.014;8.540;2023-04-05T11:53:57;100759.44;;;11.21;45.02
2188;BME280;1100;52.014;8.540;2023-04-05T11:56:22;100751.22;;;11.34;46.64
2188;BME280;1100;52.014;8.540;2023-04-05T11:58:48;100748.16;;;11.86;47.26
2188;BME280;1100;52.014;8.540;2023-04-05T12:01:13;100746.06;;;12.27;46.31
2188;BME280;1100;52.014;8.540;2023-04-05T12:03:38;100749.13;;;12.50;45.38
2188;BME280;1100;52.014;8.540;2023-04-05T12:06:05;100746.41;;;12.46;44.84
2188;BME280;1100;52.014;8.540;2023-04-05T12:08:39;100743.88;;;12.35;45.71
2188;BME280;1100;52.014;8.540;2023-04-05T12:11:10;100736.47;;;12.12;43.07
2188;BME280;1100;52.014;8.540;2023-04-05T12:13:36;100732.72;;;11.81;44.22
2188;BME280;1100;52.014;8.540;2023-04-05T12:16:03;100728.22;;;11.88;45.13
2188;BME280;1100;52.014;8.540;2023-04-05T12:18:32;100731.69;;;11.75;45.15
2188;BME280;1100;52.014;8.540;2023-04-05T12:20:58;100725.47;;;11.30;45.49
2188;BME280;1100;52.014;8.540;2023-04-05T12:23:24;100736.53;;;11.34;45.39
2188;BME280;1100;52.014;8.540;2023-04-05T12:25:52;100737.38;;;11.51;44.85
2188;BME280;1100;52.014;8.540;2023-04-05T12:28:18;100722.53;;;11.38;44.88
2188;BME280;1100;52.014;8.540;2023-04-05T12:30:51;100729.09;;;11.27;44.93
2188;BME280;1100;52.014;8.540;2023-04-05T12:35:53;100720.28;;;11.12;44.71
2188;BME280;1100;52.014;8.540;2023-04-05T12:38:18;100718.25;;;11.13;43.94
2188;BME280;1100;52.014;8.540;2023-04-05T12:40:44;100709.25;;;11.25;45.11
2188;BME280;1100;52.014;8.540;2023-04-05T12:43:11;100718.88;;;11.41;45.24
2188;BME280;1100;52.014;8.540;2023-04-05T12:45:43;100716.31;;;11.50;45.28
2188;BME280;1100;52.014;8.540;2023-04-05T12:48:11;100703.03;;;11.38;44.79
2188;BME280;1100;52.014;8.540;2023-04-05T12:50:41;100708.47;;;11.45;45.26
2188;BME280;1100;52.014;8.540;2023-04-05T12:53:07;100704.47;;;11.46;45.62
2188;BME280;1100;52.014;8.540;2023-04-05T12:55:37;100701.22;;;10.90;45.92
2188;BME280;1100;52.014;8.540;2023-04-05T12:58:06;100689.81;;;10.37;45.69
2188;BME280;1100;52.014;8.540;2023-04-05T13:00:32;100702.13;;;9.84;46.22
2188;BME280;1100;52.014;8.540;2023-04-05T13:02:58;100695.88;;;9.49;46.80
2188;BME280;1100;52.014;8.540;2023-04-05T13:05:25;100688.19;;;9.29;45.64
2188;BME280;1100;52.014;8.540;2023-04-05T13:07:50;100692.69;;;9.50;46.26
2188;BME280;1100;52.014;8.540;2023-04-05T13:10:20;100686.19;;;10.16;46.76
2188;BME280;1100;52.014;8.540;2023-04-05T13:12:46;100680.97;;;10.42;47.00
2188;BME280;1100;52.014;8.540;2023-04-05T13:15:13;100677.78;;;10.19;45.72
2188;BME280;1100;52.014;8.540;2023-04-05T13:17:39;100676.28;;;9.87;46.07
2188;BME280;1100;52.014;8.540;2023-04-05T13:20:06;100677.44;;;9.62;46.15
2188;BME280;1100;52.014;8.540;2023-04-05T13:22:31;100676.56;;;9.69;46.73
2188;BME280;1100;52.014;8.540;2023-04-05T13:24:59;100675.88;;;9.61;47.05
2188;BME280;1100;52.014;8.540;2023-04-05T13:27:24;100671.97;;;9.58;47.31
2188;BME280;1100;52.014;8.540;2023-04-05T13:29:49;100670.94;;;9.45;47.19
2188;BME280;1100;52.014;8.540;2023-04-05T13:32:15;100668.88;;;9.21;47.32
2188;BME280;1100;52.014;8.540;2023-04-05T13:34:40;100672.69;;;9.00;47.34
2188;BME280;1100;52.014;8.540;2023-04-05T13:37:05;100660.94;;;8.89;47.16
2188;BME280;1100;52.014;8.540;2023-04-05T13:39:31;100666.97;;;9.15;47.17
2188;BME280;1100;52.014;8.540;2023-04-05T13:41:56;100666.56;;;9.75;47.17
2188;BME280;1100;52.014;8.540;2023-04-05T13:44:22;100661.28;;;9.84;46.42
2188;BME280;1100;52.014;8.540;2023-04-05T13:46:48;100657.31;;;10.09;46.60